Main page
METAR-TAF:

METAR-TAF

Airports :

Anoka County–Blaine Airport

Minneapolis / Blaine, Minnesota, United States

latitude: 45-09N, longitude: 093-13W, elevation: 912 ft

Current weather observation

The report was made 1 hour and 21 minutes ago, at 02:45 UTC
Wind 6 mph from the South/Southwest
Temperature 43°F
Humidity 61%
Pressure 29.85 in. Hg
Visibility: 10 miles
Clear sky

METAR: KANE 290245Z 21005KT 10SM CLR 06/M01 A2985

Time: 22:06 (04:06 UTC)


TAF: missing

Weather observations and forecasts of more than 4000 airports (METAR and TAF reports).

The available stations are represented by yellow and red dots on the map.

Hover mouse over dot to see the name of the station.

Then click to see weather observations and forecasts.

To change the map : click on the green buttons with a black cross to zoom in, on the green button with a dash to zoom out, or on the green arrows for adjacent maps.


METAR-TAF: